sensor_id;sensor_type;location;lat;lon;timestamp;temperature;humidity
19880;DHT22;10102;50.828;4.416;2022-07-30T00:00:00;19.80;99.90
19880;DHT22;10102;50.828;4.416;2022-07-30T00:02:25;19.60;99.90
19880;DHT22;10102;50.828;4.416;2022-07-30T00:04:51;19.90;99.90
19880;DHT22;10102;50.828;4.416;2022-07-30T00:07:17;19.70;99.90
19880;DHT22;10102;50.828;4.416;2022-07-30T00:09:43;19.50;99.90
19880;DHT22;10102;50.828;4.416;2022-07-30T00:12:09;19.50;99.90
19880;DHT22;10102;50.828;4.416;2022-07-30T00:14:35;19.60;99.90
19880;DHT22;10102;50.828;4.416;2022-07-30T00:17:01;19.50;99.90
19880;DHT22;10102;50.828;4.416;2022-07-30T00:19:27;19.50;99.90
19880;DHT22;10102;50.828;4.416;2022-07-30T00:21:53;19.40;99.90
19880;DHT22;10102;50.828;4.416;2022-07-30T00:24:22;19.70;99.90
19880;DHT22;10102;50.828;4.416;2022-07-30T00:26:48;19.50;99.90
19880;DHT22;10102;50.828;4.416;2022-07-30T00:29:13;19.60;99.90
19880;DHT22;10102;50.828;4.416;2022-07-30T00:31:39;19.50;99.90
19880;DHT22;10102;50.828;4.416;2022-07-30T00:34:05;19.60;99.90
19880;DHT22;10102;50.828;4.416;2022-07-30T00:36:31;20.00;99.90
19880;DHT22;10102;50.828;4.416;2022-07-30T00:38:57;19.40;99.90
19880;DHT22;10102;50.828;4.416;2022-07-30T00:41:23;19.50;99.90
19880;DHT22;10102;50.828;4.416;2022-07-30T00:43:49;19.40;99.90
19880;DHT22;10102;50.828;4.416;2022-07-30T00:46:14;19.50;99.90
19880;DHT22;10102;50.828;4.416;2022-07-30T00:48:41;19.50;99.90
19880;DHT22;10102;50.828;4.416;2022-07-30T00:51:07;19.40;99.90
19880;DHT22;10102;50.828;4.416;2022-07-30T00:53:33;19.70;99.90
19880;DHT22;10102;50.828;4.416;2022-07-30T00:55:59;19.40;99.90
19880;DHT22;10102;50.828;4.416;2022-07-30T00:58:25;19.40;99.90
19880;DHT22;10102;50.828;4.416;2022-07-30T01:00:51;19.20;99.90
19880;DHT22;10102;50.828;4.416;2022-07-30T01:03:16;19.20;99.90
19880;DHT22;10102;50.828;4.416;2022-07-30T01:05:42;19.00;99.90
19880;DHT22;10102;50.828;4.416;2022-07-30T01:10:34;19.20;99.90
19880;DHT22;10102;50.828;4.416;2022-07-30T01:12:59;19.10;99.90
19880;DHT22;10102;50.828;4.416;2022-07-30T01:15:27;19.40;99.90
19880;DHT22;10102;50.828;4.416;2022-07-30T01:17:54;19.20;99.90
19880;DHT22;10102;50.828;4.416;2022-07-30T01:20:27;19.50;99.90
19880;DHT22;10102;50.828;4.416;2022-07-30T01:23:17;19.10;99.90
19880;DHT22;10102;50.828;4.416;2022-07-30T01:26:01;19.10;99.90
19880;DHT22;10102;50.828;4.416;2022-07-30T01:28:37;19.10;99.90
19880;DHT22;10102;50.828;4.416;2022-07-30T01:31:04;19.40;99.90
19880;DHT22;10102;50.828;4.416;2022-07-30T01:33:33;19.00;99.90
19880;DHT22;10102;50.828;4.416;2022-07-30T01:36:00;19.00;99.90
19880;DHT22;10102;50.828;4.416;2022-07-30T01:38:28;19.10;99.90
19880;DHT22;10102;50.828;4.416;2022-07-30T01:43:22;19.00;99.90
19880;DHT22;10102;50.828;4.416;2022-07-30T01:45:51;19.00;99.90
19880;DHT22;10102;50.828;4.416;2022-07-30T01:48:19;18.90;99.90
19880;DHT22;10102;50.828;4.416;2022-07-30T01:50:47;19.00;99.90
19880;DHT22;10102;50.828;4.416;2022-07-30T01:53:16;19.10;99.90
19880;DHT22;10102;50.828;4.416;2022-07-30T01:55:43;18.80;99.90
19880;DHT22;10102;50.828;4.416;2022-07-30T01:58:10;19.10;99.90
19880;DHT22;10102;50.828;4.416;2022-07-30T02:00:39;18.90;99.90
19880;DHT22;10102;50.828;4.416;2022-07-30T02:03:06;18.70;99.90
19880;DHT22;10102;50.828;4.416;2022-07-30T02:05:34;18.80;99.90
19880;DHT22;10102;50.828;4.416;2022-07-30T02:08:07;18.80;99.90
19880;DHT22;10102;50.828;4.416;2022-07-30T02:11:07;18.70;99.90
19880;DHT22;10102;50.828;4.416;2022-07-30T02:13:44;18.80;99.90
19880;DHT22;10102;50.828;4.416;2022-07-30T02:16:35;18.70;99.90
19880;DHT22;10102;50.828;4.416;2022-07-30T02:19:04;18.50;99.90
19880;DHT22;10102;50.828;4.416;2022-07-30T02:21:37;18.60;99.90
19880;DHT22;10102;50.828;4.416;2022-07-30T02:24:06;18.70;99.90
19880;DHT22;10102;50.828;4.416;2022-07-30T02:26:33;18.60;99.90
19880;DHT22;10102;50.828;4.416;2022-07-30T02:29:01;18.50;99.90
19880;DHT22;10102;50.828;4.416;2022-07-30T02:31:28;18.40;99.90
19880;DHT22;10102;50.828;4.416;2022-07-30T02:33:58;18.30;99.90
19880;DHT22;10102;50.828;4.416;2022-07-30T02:36:26;18.40;99.90
19880;DHT22;10102;50.828;4.416;2022-07-30T02:38:53;18.30;99.90
19880;DHT22;10102;50.828;4.416;2022-07-30T02:41:25;18.40;99.90
19880;DHT22;10102;50.828;4.416;2022-07-30T02:43:52;18.30;99.90
19880;DHT22;10102;50.828;4.416;2022-07-30T02:46:21;18.20;99.90
19880;DHT22;10102;50.828;4.416;2022-07-30T02:48:48;18.40;99.90
19880;DHT22;10102;50.828;4.416;2022-07-30T02:51:16;18.20;99.90
19880;DHT22;10102;50.828;4.416;2022-07-30T02:53:47;18.00;99.90
19880;DHT22;10102;50.828;4.416;2022-07-30T02:56:14;18.40;99.90
19880;DHT22;10102;50.828;4.416;2022-07-30T02:58:44;18.20;99.90
19880;DHT22;10102;50.828;4.416;2022-07-30T03:01:14;18.40;99.90
19880;DHT22;10102;50.828;4.416;2022-07-30T03:03:42;18.30;99.90
19880;DHT22;10102;50.828;4.416;2022-07-30T03:06:12;18.30;99.90
19880;DHT22;10102;50.828;4.416;2022-07-30T03:08:40;18.10;99.90
19880;DHT22;10102;50.828;4.416;2022-07-30T03:11:09;17.90;99.90
19880;DHT22;10102;50.828;4.416;2022-07-30T03:13:36;18.00;99.90
19880;DHT22;10102;50.828;4.416;2022-07-30T03:16:05;18.30;99.90
19880;DHT22;10102;50.828;4.416;2022-07-30T03:18:33;18.50;99.90
19880;DHT22;10102;50.828;4.416;2022-07-30T03:21:00;18.30;99.90
19880;DHT22;10102;50.828;4.416;2022-07-30T03:23:26;18.20;99.90
19880;DHT22;10102;50.828;4.416;2022-07-30T03:26:00;18.10;99.90
19880;DHT22;10102;50.828;4.416;2022-07-30T03:28:30;18.10;99.90
19880;DHT22;10102;50.828;4.416;2022-07-30T03:30:56;18.20;99.90
19880;DHT22;10102;50.828;4.416;2022-07-30T03:33:22;18.00;99.90
19880;DHT22;10102;50.828;4.416;2022-07-30T03:35:49;18.20;99.90
19880;DHT22;10102;50.828;4.416;2022-07-30T03:38:16;18.10;99.90
19880;DHT22;10102;50.828;4.416;2022-07-30T03:40:43;18.10;99.90
19880;DHT22;10102;50.828;4.416;2022-07-30T03:43:10;18.00;99.90
19880;DHT22;10102;50.828;4.416;2022-07-30T03:45:40;18.20;99.90
19880;DHT22;10102;50.828;4.416;2022-07-30T03:48:07;18.20;99.90
19880;DHT22;10102;50.828;4.416;2022-07-30T03:50:35;18.20;99.90
19880;DHT22;10102;50.828;4.416;2022-07-30T03:53:03;17.90;99.90
19880;DHT22;10102;50.828;4.416;2022-07-30T03:55:30;18.30;99.90
19880;DHT22;10102;50.828;4.416;2022-07-30T03:57:56;18.10;99.90
19880;DHT22;10102;50.828;4.416;2022-07-30T04:00:22;18.10;99.90
19880;DHT22;10102;50.828;4.416;2022-07-30T04:02:49;18.20;99.90
19880;DHT22;10102;50.828;4.416;2022-07-30T04:05:15;18.20;99.90
19880;DHT22;10102;50.828;4.416;2022-07-30T04:07:41;18.10;99.90
19880;DHT22;10102;50.828;4.416;2022-07-30T04:10:07;18.00;99.90
19880;DHT22;10102;50.828;4.416;2022-07-30T04:12:34;18.00;99.90
19880;DHT22;10102;50.828;4.416;2022-07-30T04:15:00;18.10;99.90
19880;DHT22;10102;50.828;4.416;2022-07-30T04:17:47;18.20;99.90
19880;DHT22;10102;50.828;4.416;2022-07-30T04:20:17;18.20;99.90
19880;DHT22;10102;50.828;4.416;2022-07-30T04:22:45;18.20;99.90
19880;DHT22;10102;50.828;4.416;2022-07-30T04:25:12;18.30;99.90
19880;DHT22;10102;50.828;4.416;2022-07-30T04:27:39;18.40;99.90
19880;DHT22;10102;50.828;4.416;2022-07-30T04:30:05;18.30;99.90
19880;DHT22;10102;50.828;4.416;2022-07-30T04:32:31;18.50;99.90
19880;DHT22;10102;50.828;4.416;2022-07-30T04:34:57;18.30;99.90
19880;DHT22;10102;50.828;4.416;2022-07-30T04:37:25;18.30;99.90
19880;DHT22;10102;50.828;4.416;2022-07-30T04:39:52;18.30;99.90
19880;DHT22;10102;50.828;4.416;2022-07-30T04:42:25;18.30;99.90
19880;DHT22;10102;50.828;4.416;2022-07-30T04:44:51;18.50;99.90
19880;DHT22;10102;50.828;4.416;2022-07-30T04:47:18;18.50;99.90
19880;DHT22;10102;50.828;4.416;2022-07-30T04:49:44;18.60;99.90
19880;DHT22;10102;50.828;4.416;2022-07-30T04:52:12;18.50;99.90
19880;DHT22;10102;50.828;4.416;2022-07-30T04:54:47;18.50;99.90
19880;DHT22;10102;50.828;4.416;2022-07-30T04:57:16;18.50;99.90
19880;DHT22;10102;50.828;4.416;2022-07-30T04:59:42;18.60;99.90
19880;DHT22;10102;50.828;4.416;2022-07-30T05:02:09;18.70;99.90
19880;DHT22;10102;50.828;4.416;2022-07-30T05:04:37;18.50;99.90
19880;DHT22;10102;50.828;4.416;2022-07-30T05:07:04;18.70;99.90
19880;DHT22;10102;50.828;4.416;2022-07-30T05:09:31;18.90;99.90
19880;DHT22;10102;50.828;4.416;2022-07-30T05:11:57;18.90;99.90
19880;DHT22;10102;50.828;4.416;2022-07-30T05:14:25;19.10;99.90
19880;DHT22;10102;50.828;4.416;2022-07-30T05:16:51;19.10;99.90
19880;DHT22;10102;50.828;4.416;2022-07-30T05:19:18;19.00;99.90
19880;DHT22;10102;50.828;4.416;2022-07-30T05:21:45;19.20;99.90
19880;DHT22;10102;50.828;4.416;2022-07-30T05:24:11;19.20;99.90
19880;DHT22;10102;50.828;4.416;2022-07-30T05:26:37;19.10;99.90
19880;DHT22;10102;50.828;4.416;2022-07-30T05:29:03;19.00;99.90
19880;DHT22;10102;50.828;4.416;2022-07-30T05:31:29;19.20;99.90
19880;DHT22;10102;50.828;4.416;2022-07-30T05:33:54;19.50;99.90
19880;DHT22;10102;50.828;4.416;2022-07-30T05:36:20;19.60;99.90
19880;DHT22;10102;50.828;4.416;2022-07-30T05:38:46;19.40;99.90
19880;DHT22;10102;50.828;4.416;2022-07-30T05:41:12;19.50;99.90
19880;DHT22;10102;50.828;4.416;2022-07-30T05:43:38;19.60;99.90
19880;DHT22;10102;50.828;4.416;2022-07-30T05:46:04;19.70;99.90
19880;DHT22;10102;50.828;4.416;2022-07-30T05:48:30;19.60;99.90
19880;DHT22;10102;50.828;4.416;2022-07-30T05:51:00;19.60;99.90
19880;DHT22;10102;50.828;4.416;2022-07-30T05:53:26;19.60;99.90
19880;DHT22;10102;50.828;4.416;2022-07-30T05:59:02;19.60;99.90
19880;DHT22;10102;50.828;4.416;2022-07-30T06:01:28;19.70;99.90
19880;DHT22;10102;50.828;4.416;2022-07-30T06:03:53;19.70;99.90
19880;DHT22;10102;50.828;4.416;2022-07-30T06:06:19;20.10;99.90
19880;DHT22;10102;50.828;4.416;2022-07-30T06:08:45;19.80;99.90
19880;DHT22;10102;50.828;4.416;2022-07-30T06:11:10;19.90;99.90
19880;DHT22;10102;50.828;4.416;2022-07-30T06:13:37;20.10;99.90
19880;DHT22;10102;50.828;4.416;2022-07-30T06:16:04;19.90;99.90
19880;DHT22;10102;50.828;4.416;2022-07-30T06:18:30;20.00;99.90
19880;DHT22;10102;50.828;4.416;2022-07-30T06:20:56;20.30;99.90
19880;DHT22;10102;50.828;4.416;2022-07-30T06:23:22;20.40;99.90
19880;DHT22;10102;50.828;4.416;2022-07-30T06:25:49;20.60;99.90
19880;DHT22;10102;50.828;4.416;2022-07-30T06:28:16;20.80;99.90
19880;DHT22;10102;50.828;4.416;2022-07-30T06:30:42;20.80;99.90
19880;DHT22;10102;50.828;4.416;2022-07-30T06:33:11;20.70;99.90
19880;DHT22;10102;50.828;4.416;2022-07-30T06:35:37;21.20;99.90
19880;DHT22;10102;50.828;4.416;2022-07-30T06:38:02;20.60;99.90
19880;DHT22;10102;50.828;4.416;2022-07-30T06:40:28;21.00;99.90
19880;DHT22;10102;50.828;4.416;2022-07-30T06:42:54;21.10;99.90
19880;DHT22;10102;50.828;4.416;2022-07-30T06:45:20;21.10;99.90
19880;DHT22;10102;50.828;4.416;2022-07-30T06:47:45;21.20;99.90
19880;DHT22;10102;50.828;4.416;2022-07-30T06:50:11;21.30;99.90
19880;DHT22;10102;50.828;4.416;2022-07-30T06:52:37;21.70;99.90
19880;DHT22;10102;50.828;4.416;2022-07-30T06:55:03;21.60;99.90
19880;DHT22;10102;50.828;4.416;2022-07-30T06:57:29;21.80;99.90
19880;DHT22;10102;50.828;4.416;2022-07-30T06:59:54;21.80;99.90
19880;DHT22;10102;50.828;4.416;2022-07-30T07:02:20;21.90;99.90
19880;DHT22;10102;50.828;4.416;2022-07-30T07:04:45;22.10;99.90
19880;DHT22;10102;50.828;4.416;2022-07-30T07:07:11;22.10;99.90
19880;DHT22;10102;50.828;4.416;2022-07-30T07:09:37;22.20;99.90
19880;DHT22;10102;50.828;4.416;2022-07-30T07:12:03;22.10;99.90
19880;DHT22;10102;50.828;4.416;2022-07-30T07:14:28;22.40;99.90
19880;DHT22;10102;50.828;4.416;2022-07-30T07:16:54;22.40;99.90
19880;DHT22;10102;50.828;4.416;2022-07-30T07:19:20;22.50;99.90
19880;DHT22;10102;50.828;4.416;2022-07-30T07:21:45;22.60;99.90
19880;DHT22;10102;50.828;4.416;2022-07-30T07:24:11;22.60;99.90
19880;DHT22;10102;50.828;4.416;2022-07-30T07:26:37;22.70;99.90
19880;DHT22;10102;50.828;4.416;2022-07-30T07:29:02;22.70;99.90
19880;DHT22;10102;50.828;4.416;2022-07-30T07:31:28;22.70;99.90
19880;DHT22;10102;50.828;4.416;2022-07-30T07:33:54;22.70;99.90
19880;DHT22;10102;50.828;4.416;2022-07-30T07:36:20;22.70;99.90
19880;DHT22;10102;50.828;4.416;2022-07-30T07:38:46;22.70;99.90
19880;DHT22;10102;50.828;4.416;2022-07-30T07:41:12;22.80;99.90
19880;DHT22;10102;50.828;4.416;2022-07-30T07:43:37;22.80;99.90
19880;DHT22;10102;50.828;4.416;2022-07-30T07:46:05;22.70;99.90
19880;DHT22;10102;50.828;4.416;2022-07-30T07:48:31;22.90;99.90
19880;DHT22;10102;50.828;4.416;2022-07-30T07:50:57;22.90;99.90
19880;DHT22;10102;50.828;4.416;2022-07-30T07:53:23;22.90;99.90
19880;DHT22;10102;50.828;4.416;2022-07-30T07:55:48;22.80;99.90
19880;DHT22;10102;50.828;4.416;2022-07-30T07:58:15;22.80;99.90
19880;DHT22;10102;50.828;4.416;2022-07-30T08:00:41;22.90;99.90
19880;DHT22;10102;50.828;4.416;2022-07-30T08:03:06;23.00;99.90
19880;DHT22;10102;50.828;4.416;2022-07-30T08:05:32;22.80;99.90
19880;DHT22;10102;50.828;4.416;2022-07-30T08:07:58;22.80;99.90
19880;DHT22;10102;50.828;4.416;2022-07-30T08:10:24;23.00;99.90
19880;DHT22;10102;50.828;4.416;2022-07-30T08:12:49;23.20;99.90
19880;DHT22;10102;50.828;4.416;2022-07-30T08:15:15;23.20;99.90
19880;DHT22;10102;50.828;4.416;2022-07-30T08:17:45;23.40;99.90
19880;DHT22;10102;50.828;4.416;2022-07-30T08:20:18;23.40;99.90
19880;DHT22;10102;50.828;4.416;2022-07-30T08:22:46;23.30;99.90
19880;DHT22;10102;50.828;4.416;2022-07-30T08:25:12;23.30;99.90
19880;DHT22;10102;50.828;4.416;2022-07-30T08:27:38;23.30;99.90
19880;DHT22;10102;50.828;4.416;2022-07-30T08:30:07;23.60;99.90
19880;DHT22;10102;50.828;4.416;2022-07-30T08:32:35;23.80;99.90
19880;DHT22;10102;50.828;4.416;2022-07-30T08:35:02;23.80;99.90
19880;DHT22;10102;50.828;4.416;2022-07-30T08:37:28;24.20;99.90
19880;DHT22;10102;50.828;4.416;2022-07-30T08:39:54;24.20;99.90
19880;DHT22;10102;50.828;4.416;2022-07-30T08:42:21;24.60;99.90
19880;DHT22;10102;50.828;4.416;2022-07-30T08:44:47;24.70;99.90
19880;DHT22;10102;50.828;4.416;2022-07-30T08:47:16;24.70;99.90
19880;DHT22;10102;50.828;4.416;2022-07-30T08:49:44;25.20;99.90
19880;DHT22;10102;50.828;4.416;2022-07-30T08:52:11;25.30;99.90
19880;DHT22;10102;50.828;4.416;2022-07-30T08:54:38;25.40;99.90
19880;DHT22;10102;50.828;4.416;2022-07-30T08:57:04;25.70;99.90
19880;DHT22;10102;50.828;4.416;2022-07-30T08:59:30;28.70;99.90
19880;DHT22;10102;50.828;4.416;2022-07-30T09:01:57;25.60;99.90
19880;DHT22;10102;50.828;4.416;2022-07-30T09:04:23;25.50;99.90
19880;DHT22;10102;50.828;4.416;2022-07-30T09:06:49;25.20;99.90
19880;DHT22;10102;50.828;4.416;2022-07-30T09:09:15;25.20;99.90
19880;DHT22;10102;50.828;4.416;2022-07-30T09:11:40;25.00;99.90
19880;DHT22;10102;50.828;4.416;2022-07-30T09:14:13;25.00;99.90
19880;DHT22;10102;50.828;4.416;2022-07-30T09:16:39;24.90;99.90
19880;DHT22;10102;50.828;4.416;2022-07-30T09:19:19;24.90;99.90
19880;DHT22;10102;50.828;4.416;2022-07-30T09:22:00;25.30;99.90
19880;DHT22;10102;50.828;4.416;2022-07-30T09:24:26;25.30;99.90
19880;DHT22;10102;50.828;4.416;2022-07-30T09:27:00;25.90;99.90
19880;DHT22;10102;50.828;4.416;2022-07-30T09:29:28;26.10;99.90
19880;DHT22;10102;50.828;4.416;2022-07-30T09:32:05;26.20;99.90
19880;DHT22;10102;50.828;4.416;2022-07-30T09:34:36;26.60;99.90
19880;DHT22;10102;50.828;4.416;2022-07-30T09:37:04;26.50;99.90
19880;DHT22;10102;50.828;4.416;2022-07-30T09:39:36;26.90;99.90
19880;DHT22;10102;50.828;4.416;2022-07-30T09:42:04;27.40;99.90
19880;DHT22;10102;50.828;4.416;2022-07-30T09:44:40;27.70;99.90
19880;DHT22;10102;50.828;4.416;2022-07-30T09:47:06;27.70;99.90
19880;DHT22;10102;50.828;4.416;2022-07-30T09:49:32;27.80;99.90
19880;DHT22;10102;50.828;4.416;2022-07-30T09:51:58;27.90;99.90
19880;DHT22;10102;50.828;4.416;2022-07-30T09:54:24;28.20;99.90
19880;DHT22;10102;50.828;4.416;2022-07-30T09:57:08;28.20;99.90
19880;DHT22;10102;50.828;4.416;2022-07-30T09:59:34;28.20;99.90
19880;DHT22;10102;50.828;4.416;2022-07-30T10:02:00;28.30;99.90
19880;DHT22;10102;50.828;4.416;2022-07-30T10:04:27;28.30;99.90
19880;DHT22;10102;50.828;4.416;2022-07-30T10:06:54;27.90;99.50
19880;DHT22;10102;50.828;4.416;2022-07-30T10:09:33;27.70;99.70
19880;DHT22;10102;50.828;4.416;2022-07-30T10:12:04;27.70;99.70
19880;DHT22;10102;50.828;4.416;2022-07-30T10:14:35;27.60;99.70
19880;DHT22;10102;50.828;4.416;2022-07-30T10:17:03;27.60;99.90
19880;DHT22;10102;50.828;4.416;2022-07-30T10:19:31;28.10;99.60
19880;DHT22;10102;50.828;4.416;2022-07-30T10:21:58;27.80;98.90
19880;DHT22;10102;50.828;4.416;2022-07-30T10:24:24;28.00;99.00
19880;DHT22;10102;50.828;4.416;2022-07-30T10:26:51;28.30;98.60
19880;DHT22;10102;50.828;4.416;2022-07-30T10:29:18;29.20;97.50
19880;DHT22;10102;50.828;4.416;2022-07-30T10:31:45;28.70;97.80
19880;DHT22;10102;50.828;4.416;2022-07-30T10:34:12;29.30;96.50
19880;DHT22;10102;50.828;4.416;2022-07-30T10:37:11;29.20;95.50
19880;DHT22;10102;50.828;4.416;2022-07-30T10:39:52;29.70;95.00
19880;DHT22;10102;50.828;4.416;2022-07-30T10:45:22;29.90;93.80
19880;DHT22;10102;50.828;4.416;2022-07-30T10:47:54;30.00;93.70
19880;DHT22;10102;50.828;4.416;2022-07-30T10:50:22;29.70;93.90
19880;DHT22;10102;50.828;4.416;2022-07-30T10:52:58;30.30;93.90
19880;DHT22;10102;50.828;4.416;2022-07-30T10:55:30;30.60;93.30
19880;DHT22;10102;50.828;4.416;2022-07-30T10:58:09;31.00;92.50
19880;DHT22;10102;50.828;4.416;2022-07-30T11:03:24;31.90;92.00
19880;DHT22;10102;50.828;4.416;2022-07-30T11:06:37;32.10;90.60
19880;DHT22;10102;50.828;4.416;2022-07-30T11:08:39;31.20;91.00
19880;DHT22;10102;50.828;4.416;2022-07-30T11:13:58;30.70;96.80
19880;DHT22;10102;50.828;4.416;2022-07-30T11:19:13;31.20;90.80
19880;DHT22;10102;50.828;4.416;2022-07-30T11:21:44;31.50;90.40
19880;DHT22;10102;50.828;4.416;2022-07-30T11:24:41;31.00;90.20
19880;DHT22;10102;50.828;4.416;2022-07-30T11:27:07;30.80;90.70
19880;DHT22;10102;50.828;4.416;2022-07-30T11:29:35;30.80;91.00
19880;DHT22;10102;50.828;4.416;2022-07-30T11:32:26;31.00;90.50
19880;DHT22;10102;50.828;4.416;2022-07-30T11:35:13;31.40;90.70
19880;DHT22;10102;50.828;4.416;2022-07-30T11:38:05;31.30;89.40
19880;DHT22;10102;50.828;4.416;2022-07-30T11:40:34;31.90;88.80
19880;DHT22;10102;50.828;4.416;2022-07-30T11:43:30;32.50;87.00
19880;DHT22;10102;50.828;4.416;2022-07-30T11:46:14;32.40;85.70
19880;DHT22;10102;50.828;4.416;2022-07-30T11:49:01;36.00;89.30
19880;DHT22;10102;50.828;4.416;2022-07-30T11:51:40;36.00;78.40
19880;DHT22;10102;50.828;4.416;2022-07-30T11:54:07;36.70;76.40
19880;DHT22;10102;50.828;4.416;2022-07-30T11:56:35;36.90;74.60
19880;DHT22;10102;50.828;4.416;2022-07-30T11:59:04;36.60;72.70
19880;DHT22;10102;50.828;4.416;2022-07-30T12:01:30;36.00;73.10
19880;DHT22;10102;50.828;4.416;2022-07-30T12:04:02;36.60;73.80
19880;DHT22;10102;50.828;4.416;2022-07-30T12:06:28;37.90;69.40
19880;DHT22;10102;50.828;4.416;2022-07-30T12:08:56;40.40;65.50
19880;DHT22;10102;50.828;4.416;2022-07-30T12:11:22;39.10;64.80
19880;DHT22;10102;50.828;4.416;2022-07-30T12:13:56;39.80;63.40
19880;DHT22;10102;50.828;4.416;2022-07-30T12:16:24;40.50;61.70
19880;DHT22;10102;50.828;4.416;2022-07-30T12:18:50;41.00;60.50
19880;DHT22;10102;50.828;4.416;2022-07-30T12:21:16;40.40;60.20
19880;DHT22;10102;50.828;4.416;2022-07-30T12:24:04;40.70;60.20
19880;DHT22;10102;50.828;4.416;2022-07-30T12:26:34;41.00;60.10
19880;DHT22;10102;50.828;4.416;2022-07-30T12:29:08;39.90;59.10
19880;DHT22;10102;50.828;4.416;2022-07-30T12:31:36;38.30;62.10
19880;DHT22;10102;50.828;4.416;2022-07-30T12:34:17;38.30;62.00
19880;DHT22;10102;50.828;4.416;2022-07-30T12:36:42;38.30;62.80
19880;DHT22;10102;50.828;4.416;2022-07-30T12:39:20;39.70;60.60
19880;DHT22;10102;50.828;4.416;2022-07-30T12:41:48;41.60;58.30
19880;DHT22;10102;50.828;4.416;2022-07-30T12:44:40;40.90;58.30
19880;DHT22;10102;50.828;4.416;2022-07-30T12:49:44;42.20;56.60
19880;DHT22;10102;50.828;4.416;2022-07-30T12:52:39;43.60;54.70
19880;DHT22;10102;50.828;4.416;2022-07-30T12:55:08;42.80;54.40
19880;DHT22;10102;50.828;4.416;2022-07-30T12:57:53;42.10;55.40
19880;DHT22;10102;50.828;4.416;2022-07-30T13:00:21;41.60;55.90
19880;DHT22;10102;50.828;4.416;2022-07-30T13:02:47;40.80;56.40
19880;DHT22;10102;50.828;4.416;2022-07-30T13:05:13;41.60;55.20
19880;DHT22;10102;50.828;4.416;2022-07-30T13:07:58;43.20;54.30
19880;DHT22;10102;50.828;4.416;2022-07-30T13:10:25;43.50;52.40
19880;DHT22;10102;50.828;4.416;2022-07-30T13:12:51;43.60;52.00
19880;DHT22;10102;50.828;4.416;2022-07-30T13:15:21;44.70;51.90
19880;DHT22;10102;50.828;4.416;2022-07-30T13:17:47;46.20;50.40
19880;DHT22;10102;50.828;4.416;2022-07-30T13:20:15;46.00;50.10
19880;DHT22;10102;50.828;4.416;2022-07-30T13:22:41;44.50;51.20
19880;DHT22;10102;50.828;4.416;2022-07-30T13:25:07;42.50;52.20
19880;DHT22;10102;50.828;4.416;2022-07-30T13:27:33;40.90;54.40
19880;DHT22;10102;50.828;4.416;2022-07-30T13:30:01;38.50;56.90
19880;DHT22;10102;50.828;4.416;2022-07-30T13:32:27;37.40;57.80
19880;DHT22;10102;50.828;4.416;2022-07-30T13:34:53;36.30;59.30
19880;DHT22;10102;50.828;4.416;2022-07-30T13:37:19;35.70;61.10
19880;DHT22;10102;50.828;4.416;2022-07-30T13:39:44;35.30;62.30
19880;DHT22;10102;50.828;4.416;2022-07-30T13:42:10;34.20;63.10
19880;DHT22;10102;50.828;4.416;2022-07-30T13:44:36;33.40;64.70
19880;DHT22;10102;50.828;4.416;2022-07-30T13:47:02;33.50;65.70
19880;DHT22;10102;50.828;4.416;2022-07-30T13:49:28;34.00;63.70
19880;DHT22;10102;50.828;4.416;2022-07-30T13:51:54;34.00;64.30
19880;DHT22;10102;50.828;4.416;2022-07-30T13:54:19;34.50;63.50
19880;DHT22;10102;50.828;4.416;2022-07-30T13:56:45;35.90;62.60
19880;DHT22;10102;50.828;4.416;2022-07-30T13:59:10;37.30;59.70
19880;DHT22;10102;50.828;4.416;2022-07-30T14:01:36;38.50;57.90
19880;DHT22;10102;50.828;4.416;2022-07-30T14:04:02;39.90;56.50
19880;DHT22;10102;50.828;4.416;2022-07-30T14:06:28;41.40;54.70
19880;DHT22;10102;50.828;4.416;2022-07-30T14:08:53;42.60;53.50
19880;DHT22;10102;50.828;4.416;2022-07-30T14:11:19;44.50;51.70
19880;DHT22;10102;50.828;4.416;2022-07-30T14:13:45;44.60;50.50
19880;DHT22;10102;50.828;4.416;2022-07-30T14:16:11;44.90;50.10
19880;DHT22;10102;50.828;4.416;2022-07-30T14:18:36;42.10;51.80
19880;DHT22;10102;50.828;4.416;2022-07-30T14:21:02;41.20;53.80
19880;DHT22;10102;50.828;4.416;2022-07-30T14:23:28;41.30;53.80
19880;DHT22;10102;50.828;4.416;2022-07-30T14:25:55;42.10;53.00
19880;DHT22;10102;50.828;4.416;2022-07-30T14:28:21;42.80;52.10
19880;DHT22;10102;50.828;4.416;2022-07-30T14:30:46;42.90;51.70
19880;DHT22;10102;50.828;4.416;2022-07-30T14:33:12;42.40;52.50
19880;DHT22;10102;50.828;4.416;2022-07-30T14:35:37;42.40;52.30
19880;DHT22;10102;50.828;4.416;2022-07-30T14:38:03;41.10;53.10
19880;DHT22;10102;50.828;4.416;2022-07-30T14:40:30;38.00;58.30
19880;DHT22;10102;50.828;4.416;2022-07-30T14:42:55;41.40;53.60
19880;DHT22;10102;50.828;4.416;2022-07-30T14:45:21;40.40;53.70
19880;DHT22;10102;50.828;4.416;2022-07-30T14:47:47;38.90;54.80
19880;DHT22;10102;50.828;4.416;2022-07-30T14:50:12;39.00;55.20
19880;DHT22;10102;50.828;4.416;2022-07-30T14:52:38;40.30;54.70
19880;DHT22;10102;50.828;4.416;2022-07-30T14:55:05;40.80;53.80
19880;DHT22;10102;50.828;4.416;2022-07-30T14:57:31;40.90;52.90
19880;DHT22;10102;50.828;4.416;2022-07-30T14:59:57;40.20;53.50
19880;DHT22;10102;50.828;4.416;2022-07-30T15:02:22;39.60;54.50
19880;DHT22;10102;50.828;4.416;2022-07-30T15:04:48;38.20;55.10
19880;DHT22;10102;50.828;4.416;2022-07-30T15:07:14;36.50;57.80
19880;DHT22;10102;50.828;4.416;2022-07-30T15:09:39;34.40;60.30
19880;DHT22;10102;50.828;4.416;2022-07-30T15:12:06;34.10;62.20
19880;DHT22;10102;50.828;4.416;2022-07-30T15:14:37;33.60;63.20
19880;DHT22;10102;50.828;4.416;2022-07-30T15:17:03;33.20;64.10
19880;DHT22;10102;50.828;4.416;2022-07-30T15:19:29;32.70;65.40
19880;DHT22;10102;50.828;4.416;2022-07-30T15:21:54;32.20;66.90
19880;DHT22;10102;50.828;4.416;2022-07-30T15:24:20;31.80;67.30
19880;DHT22;10102;50.828;4.416;2022-07-30T15:26:45;31.80;80.20
19880;DHT22;10102;50.828;4.416;2022-07-30T15:29:11;32.10;67.60
19880;DHT22;10102;50.828;4.416;2022-07-30T15:31:37;32.20;66.80
19880;DHT22;10102;50.828;4.416;2022-07-30T15:34:03;32.00;66.80
19880;DHT22;10102;50.828;4.416;2022-07-30T15:36:29;32.00;67.60
19880;DHT22;10102;50.828;4.416;2022-07-30T15:38:55;31.90;67.00
19880;DHT22;10102;50.828;4.416;2022-07-30T15:41:20;32.00;67.20
19880;DHT22;10102;50.828;4.416;2022-07-30T15:43:46;32.10;67.20
19880;DHT22;10102;50.828;4.416;2022-07-30T15:46:11;32.90;65.80
19880;DHT22;10102;50.828;4.416;2022-07-30T15:48:37;33.00;65.10
19880;DHT22;10102;50.828;4.416;2022-07-30T15:51:03;32.70;65.60
19880;DHT22;10102;50.828;4.416;2022-07-30T15:53:30;32.50;66.40
19880;DHT22;10102;50.828;4.416;2022-07-30T15:55:57;31.90;79.40
19880;DHT22;10102;50.828;4.416;2022-07-30T15:58:23;32.10;66.80